sensor_id;sensor_type;location;lat;lon;timestamp;temperature;humidity
5164;DHT22;2601;50.224;10.126;2022-10-31T00:00:58;10.70;99.90
5164;DHT22;2601;50.224;10.126;2022-10-31T00:03:24;10.70;99.90
5164;DHT22;2601;50.224;10.126;2022-10-31T00:05:52;10.60;99.90
5164;DHT22;2601;50.224;10.126;2022-10-31T00:08:18;10.60;99.90
5164;DHT22;2601;50.224;10.126;2022-10-31T00:10:45;10.50;99.90
5164;DHT22;2601;50.224;10.126;2022-10-31T00:13:12;10.50;99.90
5164;DHT22;2601;50.224;10.126;2022-10-31T00:15:40;10.50;99.90
5164;DHT22;2601;50.224;10.126;2022-10-31T00:18:07;10.50;99.90
5164;DHT22;2601;50.224;10.126;2022-10-31T00:20:33;10.50;99.90
5164;DHT22;2601;50.224;10.126;2022-10-31T00:23:00;10.50;99.90
5164;DHT22;2601;50.224;10.126;2022-10-31T00:25:27;10.60;99.90
5164;DHT22;2601;50.224;10.126;2022-10-31T00:27:53;10.50;99.90
5164;DHT22;2601;50.224;10.126;2022-10-31T00:30:19;10.30;99.90
5164;DHT22;2601;50.224;10.126;2022-10-31T00:32:45;10.30;99.90
5164;DHT22;2601;50.224;10.126;2022-10-31T00:35:10;10.40;99.90
5164;DHT22;2601;50.224;10.126;2022-10-31T00:37:36;10.50;99.90
5164;DHT22;2601;50.224;10.126;2022-10-31T00:40:02;10.50;99.90
5164;DHT22;2601;50.224;10.126;2022-10-31T00:42:28;10.50;99.90
5164;DHT22;2601;50.224;10.126;2022-10-31T00:44:54;10.40;99.90
5164;DHT22;2601;50.224;10.126;2022-10-31T00:47:19;10.50;99.90
5164;DHT22;2601;50.224;10.126;2022-10-31T00:49:45;10.40;99.90
5164;DHT22;2601;50.224;10.126;2022-10-31T00:52:14;10.40;99.90
5164;DHT22;2601;50.224;10.126;2022-10-31T00:54:40;10.30;99.90
5164;DHT22;2601;50.224;10.126;2022-10-31T00:57:05;10.30;99.90
5164;DHT22;2601;50.224;10.126;2022-10-31T00:59:31;10.20;99.90
5164;DHT22;2601;50.224;10.126;2022-10-31T01:01:57;10.20;99.90
5164;DHT22;2601;50.224;10.126;2022-10-31T01:04:23;10.10;99.90
5164;DHT22;2601;50.224;10.126;2022-10-31T01:06:48;10.10;99.90
5164;DHT22;2601;50.224;10.126;2022-10-31T01:09:14;10.20;99.90
5164;DHT22;2601;50.224;10.126;2022-10-31T01:11:40;10.20;99.90
5164;DHT22;2601;50.224;10.126;2022-10-31T01:14:05;10.20;99.90
5164;DHT22;2601;50.224;10.126;2022-10-31T01:16:31;10.10;99.90
5164;DHT22;2601;50.224;10.126;2022-10-31T01:18:57;10.00;99.90
5164;DHT22;2601;50.224;10.126;2022-10-31T01:21:25;10.00;99.90
5164;DHT22;2601;50.224;10.126;2022-10-31T01:23:53;10.00;99.90
5164;DHT22;2601;50.224;10.126;2022-10-31T01:26:30;9.90;99.90
5164;DHT22;2601;50.224;10.126;2022-10-31T01:29:03;9.90;99.90
5164;DHT22;2601;50.224;10.126;2022-10-31T01:31:32;9.90;99.90
5164;DHT22;2601;50.224;10.126;2022-10-31T01:33:58;10.00;99.90
5164;DHT22;2601;50.224;10.126;2022-10-31T01:38:53;10.10;99.90
5164;DHT22;2601;50.224;10.126;2022-10-31T01:41:23;10.10;99.90
5164;DHT22;2601;50.224;10.126;2022-10-31T01:43:55;10.10;99.90
5164;DHT22;2601;50.224;10.126;2022-10-31T01:46:29;10.10;99.90
5164;DHT22;2601;50.224;10.126;2022-10-31T01:48:55;10.00;99.90
5164;DHT22;2601;50.224;10.126;2022-10-31T01:51:26;10.00;99.90
5164;DHT22;2601;50.224;10.126;2022-10-31T01:53:56;10.00;99.90
5164;DHT22;2601;50.224;10.126;2022-10-31T01:56:24;10.00;99.90
5164;DHT22;2601;50.224;10.126;2022-10-31T01:58:50;10.00;99.90
5164;DHT22;2601;50.224;10.126;2022-10-31T02:01:17;10.10;99.90
5164;DHT22;2601;50.224;10.126;2022-10-31T02:03:44;10.10;99.90
5164;DHT22;2601;50.224;10.126;2022-10-31T02:06:21;10.10;99.90
5164;DHT22;2601;50.224;10.126;2022-10-31T02:08:52;10.00;99.90
5164;DHT22;2601;50.224;10.126;2022-10-31T02:11:19;10.10;99.90
5164;DHT22;2601;50.224;10.126;2022-10-31T02:13:45;10.10;99.90
5164;DHT22;2601;50.224;10.126;2022-10-31T02:16:12;10.10;99.90
5164;DHT22;2601;50.224;10.126;2022-10-31T02:18:37;10.10;99.90
5164;DHT22;2601;50.224;10.126;2022-10-31T02:36:03;10.10;99.90
5164;DHT22;2601;50.224;10.126;2022-10-31T02:44:09;10.00;99.90
5164;DHT22;2601;50.224;10.126;2022-10-31T02:46:48;10.00;99.90
5164;DHT22;2601;50.224;10.126;2022-10-31T02:49:38;10.00;99.90
5164;DHT22;2601;50.224;10.126;2022-10-31T02:52:23;9.90;99.90
5164;DHT22;2601;50.224;10.126;2022-10-31T02:54:50;9.80;99.90
5164;DHT22;2601;50.224;10.126;2022-10-31T02:57:20;9.90;99.90
5164;DHT22;2601;50.224;10.126;2022-10-31T02:59:56;9.90;99.90
5164;DHT22;2601;50.224;10.126;2022-10-31T03:10:45;10.00;99.90
5164;DHT22;2601;50.224;10.126;2022-10-31T03:13:24;10.00;99.90
5164;DHT22;2601;50.224;10.126;2022-10-31T03:15:56;10.00;99.90
5164;DHT22;2601;50.224;10.126;2022-10-31T03:18:28;9.90;99.90
5164;DHT22;2601;50.224;10.126;2022-10-31T03:21:22;9.80;99.90
5164;DHT22;2601;50.224;10.126;2022-10-31T03:23:52;10.10;99.90
5164;DHT22;2601;50.224;10.126;2022-10-31T03:26:20;10.10;99.90
5164;DHT22;2601;50.224;10.126;2022-10-31T03:28:53;10.10;99.90
5164;DHT22;2601;50.224;10.126;2022-10-31T03:31:23;10.00;99.90
5164;DHT22;2601;50.224;10.126;2022-10-31T03:33:51;9.90;99.90
5164;DHT22;2601;50.224;10.126;2022-10-31T03:36:17;10.00;99.90
5164;DHT22;2601;50.224;10.126;2022-10-31T03:38:45;10.10;99.90
5164;DHT22;2601;50.224;10.126;2022-10-31T03:41:18;10.00;99.90
5164;DHT22;2601;50.224;10.126;2022-10-31T03:43:54;9.90;99.90
5164;DHT22;2601;50.224;10.126;2022-10-31T03:46:21;9.90;99.90
5164;DHT22;2601;50.224;10.126;2022-10-31T03:48:47;9.80;99.90
5164;DHT22;2601;50.224;10.126;2022-10-31T03:51:29;9.80;99.90
5164;DHT22;2601;50.224;10.126;2022-10-31T03:54:20;9.80;99.90
5164;DHT22;2601;50.224;10.126;2022-10-31T03:56:55;9.90;99.90
5164;DHT22;2601;50.224;10.126;2022-10-31T03:59:30;9.90;99.90
5164;DHT22;2601;50.224;10.126;2022-10-31T04:02:03;9.80;99.90
5164;DHT22;2601;50.224;10.126;2022-10-31T04:04:31;9.80;99.90
5164;DHT22;2601;50.224;10.126;2022-10-31T04:06:58;9.80;99.90
5164;DHT22;2601;50.224;10.126;2022-10-31T04:09:26;9.80;99.90
5164;DHT22;2601;50.224;10.126;2022-10-31T04:11:55;9.70;99.90
5164;DHT22;2601;50.224;10.126;2022-10-31T04:14:24;9.60;99.90
5164;DHT22;2601;50.224;10.126;2022-10-31T04:16:50;9.60;99.90
5164;DHT22;2601;50.224;10.126;2022-10-31T04:19:17;9.60;99.90
5164;DHT22;2601;50.224;10.126;2022-10-31T04:21:42;9.70;99.90
5164;DHT22;2601;50.224;10.126;2022-10-31T04:24:11;9.60;99.90
5164;DHT22;2601;50.224;10.126;2022-10-31T04:26:37;9.60;99.90
5164;DHT22;2601;50.224;10.126;2022-10-31T04:29:03;9.60;99.90
5164;DHT22;2601;50.224;10.126;2022-10-31T04:31:28;9.60;99.90
5164;DHT22;2601;50.224;10.126;2022-10-31T04:33:54;9.60;99.90
5164;DHT22;2601;50.224;10.126;2022-10-31T04:36:20;9.60;99.90
5164;DHT22;2601;50.224;10.126;2022-10-31T04:38:46;9.70;99.90
5164;DHT22;2601;50.224;10.126;2022-10-31T04:41:11;9.70;99.90
5164;DHT22;2601;50.224;10.126;2022-10-31T04:43:37;9.90;99.90
5164;DHT22;2601;50.224;10.126;2022-10-31T04:46:03;9.90;99.90
5164;DHT22;2601;50.224;10.126;2022-10-31T04:48:30;9.80;99.90
5164;DHT22;2601;50.224;10.126;2022-10-31T04:51:02;9.70;99.90
5164;DHT22;2601;50.224;10.126;2022-10-31T04:53:28;9.70;99.90
5164;DHT22;2601;50.224;10.126;2022-10-31T04:55:54;9.70;99.90
5164;DHT22;2601;50.224;10.126;2022-10-31T04:58:20;9.60;99.90
5164;DHT22;2601;50.224;10.126;2022-10-31T05:00:45;9.70;99.90
5164;DHT22;2601;50.224;10.126;2022-10-31T05:03:11;9.60;99.90
5164;DHT22;2601;50.224;10.126;2022-10-31T05:05:37;9.70;99.90
5164;DHT22;2601;50.224;10.126;2022-10-31T05:08:03;9.70;99.90
5164;DHT22;2601;50.224;10.126;2022-10-31T05:10:29;9.70;99.90
5164;DHT22;2601;50.224;10.126;2022-10-31T05:12:57;9.70;99.90
5164;DHT22;2601;50.224;10.126;2022-10-31T05:15:24;9.50;99.90
5164;DHT22;2601;50.224;10.126;2022-10-31T05:17:50;9.60;99.90
5164;DHT22;2601;50.224;10.126;2022-10-31T05:20:18;9.40;99.90
5164;DHT22;2601;50.224;10.126;2022-10-31T05:22:51;9.40;99.90
5164;DHT22;2601;50.224;10.126;2022-10-31T05:25:18;9.40;99.90
5164;DHT22;2601;50.224;10.126;2022-10-31T05:27:46;9.50;99.90
5164;DHT22;2601;50.224;10.126;2022-10-31T05:30:14;9.60;99.90
5164;DHT22;2601;50.224;10.126;2022-10-31T05:32:41;9.50;99.90
5164;DHT22;2601;50.224;10.126;2022-10-31T05:35:11;9.60;99.90
5164;DHT22;2601;50.224;10.126;2022-10-31T05:37:37;9.50;99.90
5164;DHT22;2601;50.224;10.126;2022-10-31T05:40:04;9.50;99.90
5164;DHT22;2601;50.224;10.126;2022-10-31T05:42:30;9.50;99.90
5164;DHT22;2601;50.224;10.126;2022-10-31T05:44:56;9.40;99.90
5164;DHT22;2601;50.224;10.126;2022-10-31T05:47:22;9.40;99.90
5164;DHT22;2601;50.224;10.126;2022-10-31T05:49:48;9.30;99.90
5164;DHT22;2601;50.224;10.126;2022-10-31T05:52:15;9.40;99.90
5164;DHT22;2601;50.224;10.126;2022-10-31T05:54:41;9.40;99.90
5164;DHT22;2601;50.224;10.126;2022-10-31T05:57:06;9.40;99.90
5164;DHT22;2601;50.224;10.126;2022-10-31T05:59:32;9.40;99.90
5164;DHT22;2601;50.224;10.126;2022-10-31T06:01:58;9.40;99.90
5164;DHT22;2601;50.224;10.126;2022-10-31T06:04:24;9.40;99.90
5164;DHT22;2601;50.224;10.126;2022-10-31T06:06:49;9.50;99.90
5164;DHT22;2601;50.224;10.126;2022-10-31T06:09:15;9.60;99.90
5164;DHT22;2601;50.224;10.126;2022-10-31T06:11:41;9.50;99.90
5164;DHT22;2601;50.224;10.126;2022-10-31T06:14:07;9.50;99.90
5164;DHT22;2601;50.224;10.126;2022-10-31T06:16:33;9.40;99.90
5164;DHT22;2601;50.224;10.126;2022-10-31T06:18:59;9.50;99.90
5164;DHT22;2601;50.224;10.126;2022-10-31T06:21:25;9.40;99.90
5164;DHT22;2601;50.224;10.126;2022-10-31T06:23:51;9.50;99.90
5164;DHT22;2601;50.224;10.126;2022-10-31T06:26:17;9.50;99.90
5164;DHT22;2601;50.224;10.126;2022-10-31T06:28:43;9.50;99.90
5164;DHT22;2601;50.224;10.126;2022-10-31T06:31:08;9.50;99.90
5164;DHT22;2601;50.224;10.126;2022-10-31T06:33:34;9.50;99.90
5164;DHT22;2601;50.224;10.126;2022-10-31T06:36:00;9.50;99.90
5164;DHT22;2601;50.224;10.126;2022-10-31T06:38:26;9.60;99.90
5164;DHT22;2601;50.224;10.126;2022-10-31T06:40:53;9.50;99.90
5164;DHT22;2601;50.224;10.126;2022-10-31T06:43:20;9.80;99.90
5164;DHT22;2601;50.224;10.126;2022-10-31T06:45:45;9.90;99.90
5164;DHT22;2601;50.224;10.126;2022-10-31T06:48:11;9.90;99.90
5164;DHT22;2601;50.224;10.126;2022-10-31T06:50:37;9.90;99.90
5164;DHT22;2601;50.224;10.126;2022-10-31T06:53:03;9.80;99.90
5164;DHT22;2601;50.224;10.126;2022-10-31T06:55:28;9.90;99.90
5164;DHT22;2601;50.224;10.126;2022-10-31T06:57:59;9.90;99.90
5164;DHT22;2601;50.224;10.126;2022-10-31T07:00:27;9.90;99.90
5164;DHT22;2601;50.224;10.126;2022-10-31T07:03:05;9.80;99.90
5164;DHT22;2601;50.224;10.126;2022-10-31T07:05:32;9.70;99.90
5164;DHT22;2601;50.224;10.126;2022-10-31T07:08:00;9.70;99.90
5164;DHT22;2601;50.224;10.126;2022-10-31T07:10:28;9.70;99.90
5164;DHT22;2601;50.224;10.126;2022-10-31T07:12:55;9.70;99.90
5164;DHT22;2601;50.224;10.126;2022-10-31T07:15:22;9.80;99.90
5164;DHT22;2601;50.224;10.126;2022-10-31T07:17:47;9.90;99.90
5164;DHT22;2601;50.224;10.126;2022-10-31T07:20:13;10.00;99.90
5164;DHT22;2601;50.224;10.126;2022-10-31T07:22:39;10.00;99.90
5164;DHT22;2601;50.224;10.126;2022-10-31T07:25:05;10.00;99.90
5164;DHT22;2601;50.224;10.126;2022-10-31T07:27:49;10.10;99.90
5164;DHT22;2601;50.224;10.126;2022-10-31T07:30:15;10.20;99.90
5164;DHT22;2601;50.224;10.126;2022-10-31T07:32:44;10.30;99.90
5164;DHT22;2601;50.224;10.126;2022-10-31T07:35:12;10.40;99.90
5164;DHT22;2601;50.224;10.126;2022-10-31T07:37:38;10.40;99.90
5164;DHT22;2601;50.224;10.126;2022-10-31T07:40:06;10.40;99.90
5164;DHT22;2601;50.224;10.126;2022-10-31T07:42:43;10.40;99.90
5164;DHT22;2601;50.224;10.126;2022-10-31T07:45:11;10.40;99.90
5164;DHT22;2601;50.224;10.126;2022-10-31T07:47:42;10.50;99.90
5164;DHT22;2601;50.224;10.126;2022-10-31T07:50:09;10.50;99.90
5164;DHT22;2601;50.224;10.126;2022-10-31T07:52:35;10.60;99.90
5164;DHT22;2601;50.224;10.126;2022-10-31T07:55:01;10.60;99.90
5164;DHT22;2601;50.224;10.126;2022-10-31T07:57:28;10.60;99.90
5164;DHT22;2601;50.224;10.126;2022-10-31T07:59:54;10.70;99.90
5164;DHT22;2601;50.224;10.126;2022-10-31T08:02:19;10.70;99.90
5164;DHT22;2601;50.224;10.126;2022-10-31T08:04:45;10.70;99.90
5164;DHT22;2601;50.224;10.126;2022-10-31T08:07:11;10.70;99.90
5164;DHT22;2601;50.224;10.126;2022-10-31T08:09:36;10.80;99.90
5164;DHT22;2601;50.224;10.126;2022-10-31T08:12:02;10.80;99.90
5164;DHT22;2601;50.224;10.126;2022-10-31T08:14:28;10.90;99.90
5164;DHT22;2601;50.224;10.126;2022-10-31T08:16:54;10.90;99.90
5164;DHT22;2601;50.224;10.126;2022-10-31T08:19:20;10.80;99.90
5164;DHT22;2601;50.224;10.126;2022-10-31T08:21:45;10.90;99.90
5164;DHT22;2601;50.224;10.126;2022-10-31T08:24:11;11.00;99.90
5164;DHT22;2601;50.224;10.126;2022-10-31T08:26:37;11.00;99.90
5164;DHT22;2601;50.224;10.126;2022-10-31T08:29:03;11.20;99.90
5164;DHT22;2601;50.224;10.126;2022-10-31T08:31:29;11.30;99.90
5164;DHT22;2601;50.224;10.126;2022-10-31T08:33:54;11.20;99.90
5164;DHT22;2601;50.224;10.126;2022-10-31T08:36:21;11.30;99.90
5164;DHT22;2601;50.224;10.126;2022-10-31T08:38:47;11.60;99.90
5164;DHT22;2601;50.224;10.126;2022-10-31T08:41:13;11.70;99.90
5164;DHT22;2601;50.224;10.126;2022-10-31T08:43:39;11.90;99.90
5164;DHT22;2601;50.224;10.126;2022-10-31T08:46:05;11.90;99.90
5164;DHT22;2601;50.224;10.126;2022-10-31T08:48:31;12.00;99.90
5164;DHT22;2601;50.224;10.126;2022-10-31T08:50:58;12.00;99.90
5164;DHT22;2601;50.224;10.126;2022-10-31T08:53:25;12.20;99.90
5164;DHT22;2601;50.224;10.126;2022-10-31T08:55:53;12.40;99.90
5164;DHT22;2601;50.224;10.126;2022-10-31T08:58:19;12.50;99.90
5164;DHT22;2601;50.224;10.126;2022-10-31T09:00:47;12.60;99.90
5164;DHT22;2601;50.224;10.126;2022-10-31T09:03:21;12.60;99.90
5164;DHT22;2601;50.224;10.126;2022-10-31T09:05:47;12.70;99.90
5164;DHT22;2601;50.224;10.126;2022-10-31T09:08:13;13.00;99.90
5164;DHT22;2601;50.224;10.126;2022-10-31T09:10:39;13.00;99.90
5164;DHT22;2601;50.224;10.126;2022-10-31T09:13:11;13.00;99.90
5164;DHT22;2601;50.224;10.126;2022-10-31T09:15:39;13.00;99.90
5164;DHT22;2601;50.224;10.126;2022-10-31T09:18:05;13.10;99.90
5164;DHT22;2601;50.224;10.126;2022-10-31T09:20:33;13.20;99.90
5164;DHT22;2601;50.224;10.126;2022-10-31T09:23:04;13.30;99.90
5164;DHT22;2601;50.224;10.126;2022-10-31T09:25:32;13.40;99.90
5164;DHT22;2601;50.224;10.126;2022-10-31T09:28:00;13.50;99.90
5164;DHT22;2601;50.224;10.126;2022-10-31T09:30:27;13.80;99.90
5164;DHT22;2601;50.224;10.126;2022-10-31T09:33:04;14.00;99.90
5164;DHT22;2601;50.224;10.126;2022-10-31T09:35:30;14.10;99.90
5164;DHT22;2601;50.224;10.126;2022-10-31T09:38:15;14.30;99.90
5164;DHT22;2601;50.224;10.126;2022-10-31T09:50:58;15.50;99.90
5164;DHT22;2601;50.224;10.126;2022-10-31T09:56:13;15.90;99.90
5164;DHT22;2601;50.224;10.126;2022-10-31T09:58:46;16.00;99.90
5164;DHT22;2601;50.224;10.126;2022-10-31T10:04:04;16.30;99.90
5164;DHT22;2601;50.224;10.126;2022-10-31T10:06:35;16.20;99.90
5164;DHT22;2601;50.224;10.126;2022-10-31T10:09:03;16.30;99.90
5164;DHT22;2601;50.224;10.126;2022-10-31T10:14:47;16.80;99.90
5164;DHT22;2601;50.224;10.126;2022-10-31T10:17:41;16.90;99.90
5164;DHT22;2601;50.224;10.126;2022-10-31T10:25:28;16.90;99.90
5164;DHT22;2601;50.224;10.126;2022-10-31T10:28:29;16.90;99.90
5164;DHT22;2601;50.224;10.126;2022-10-31T10:33:32;16.40;99.90
5164;DHT22;2601;50.224;10.126;2022-10-31T10:36:06;16.20;99.90
5164;DHT22;2601;50.224;10.126;2022-10-31T10:38:43;16.30;99.90
5164;DHT22;2601;50.224;10.126;2022-10-31T10:41:17;16.30;99.90
5164;DHT22;2601;50.224;10.126;2022-10-31T10:43:43;16.30;99.90
5164;DHT22;2601;50.224;10.126;2022-10-31T11:00:24;16.80;99.90
5164;DHT22;2601;50.224;10.126;2022-10-31T11:02:51;16.90;99.90
5164;DHT22;2601;50.224;10.126;2022-10-31T11:07:56;16.90;99.90
5164;DHT22;2601;50.224;10.126;2022-10-31T11:10:22;17.20;99.90
5164;DHT22;2601;50.224;10.126;2022-10-31T11:13:06;16.90;99.90
5164;DHT22;2601;50.224;10.126;2022-10-31T11:16:00;17.00;99.90
5164;DHT22;2601;50.224;10.126;2022-10-31T11:18:30;17.10;99.90
5164;DHT22;2601;50.224;10.126;2022-10-31T11:21:00;17.10;99.90
5164;DHT22;2601;50.224;10.126;2022-10-31T11:23:27;17.20;99.90
5164;DHT22;2601;50.224;10.126;2022-10-31T11:26:03;17.50;99.90
5164;DHT22;2601;50.224;10.126;2022-10-31T11:28:30;17.80;99.90
5164;DHT22;2601;50.224;10.126;2022-10-31T11:31:06;18.40;99.90
5164;DHT22;2601;50.224;10.126;2022-10-31T11:33:35;18.70;99.90
5164;DHT22;2601;50.224;10.126;2022-10-31T11:36:27;19.00;99.90
5164;DHT22;2601;50.224;10.126;2022-10-31T11:38:55;19.20;99.90
5164;DHT22;2601;50.224;10.126;2022-10-31T11:41:38;19.10;99.90
5164;DHT22;2601;50.224;10.126;2022-10-31T11:46:39;19.40;99.90
5164;DHT22;2601;50.224;10.126;2022-10-31T11:49:30;19.90;99.90
5164;DHT22;2601;50.224;10.126;2022-10-31T11:51:59;20.10;99.90
5164;DHT22;2601;50.224;10.126;2022-10-31T11:54:28;19.70;99.90
5164;DHT22;2601;50.224;10.126;2022-10-31T11:56:55;19.50;99.90
5164;DHT22;2601;50.224;10.126;2022-10-31T11:59:27;19.40;99.90
5164;DHT22;2601;50.224;10.126;2022-10-31T12:01:56;19.40;99.90
5164;DHT22;2601;50.224;10.126;2022-10-31T12:04:46;19.60;99.90
5164;DHT22;2601;50.224;10.126;2022-10-31T12:07:14;19.40;99.90
5164;DHT22;2601;50.224;10.126;2022-10-31T12:09:40;19.20;99.90
5164;DHT22;2601;50.224;10.126;2022-10-31T12:15:30;18.90;99.90
5164;DHT22;2601;50.224;10.126;2022-10-31T12:31:41;18.80;99.90
5164;DHT22;2601;50.224;10.126;2022-10-31T12:34:30;18.80;99.90
5164;DHT22;2601;50.224;10.126;2022-10-31T12:37:03;18.90;99.90
5164;DHT22;2601;50.224;10.126;2022-10-31T12:40:05;19.00;99.90
5164;DHT22;2601;50.224;10.126;2022-10-31T12:53:33;19.00;99.90
5164;DHT22;2601;50.224;10.126;2022-10-31T13:01:30;18.80;99.90
5164;DHT22;2601;50.224;10.126;2022-10-31T13:04:25;18.70;99.90
5164;DHT22;2601;50.224;10.126;2022-10-31T13:07:02;18.60;99.90
5164;DHT22;2601;50.224;10.126;2022-10-31T13:09:34;18.60;99.90
5164;DHT22;2601;50.224;10.126;2022-10-31T13:12:07;18.60;99.90
5164;DHT22;2601;50.224;10.126;2022-10-31T13:17:04;18.60;99.90
5164;DHT22;2601;50.224;10.126;2022-10-31T13:19:38;18.60;99.90
5164;DHT22;2601;50.224;10.126;2022-10-31T13:25:02;18.40;99.90
5164;DHT22;2601;50.224;10.126;2022-10-31T13:30:16;18.30;99.90
5164;DHT22;2601;50.224;10.126;2022-10-31T13:33:04;18.20;99.90
5164;DHT22;2601;50.224;10.126;2022-10-31T13:38:41;18.10;99.90
5164;DHT22;2601;50.224;10.126;2022-10-31T13:41:14;18.00;99.90
5164;DHT22;2601;50.224;10.126;2022-10-31T13:46:38;17.90;99.90
5164;DHT22;2601;50.224;10.126;2022-10-31T13:49:21;17.80;99.90
5164;DHT22;2601;50.224;10.126;2022-10-31T13:51:48;17.90;99.90
5164;DHT22;2601;50.224;10.126;2022-10-31T13:54:32;17.70;99.90
5164;DHT22;2601;50.224;10.126;2022-10-31T13:56:59;17.80;99.90
5164;DHT22;2601;50.224;10.126;2022-10-31T13:59:29;17.70;99.90
5164;DHT22;2601;50.224;10.126;2022-10-31T14:01:58;17.70;99.90
5164;DHT22;2601;50.224;10.126;2022-10-31T14:04:37;17.70;99.90
5164;DHT22;2601;50.224;10.126;2022-10-31T14:07:15;17.70;99.90
5164;DHT22;2601;50.224;10.126;2022-10-31T14:09:51;17.70;99.90
5164;DHT22;2601;50.224;10.126;2022-10-31T14:12:31;17.80;99.90
5164;DHT22;2601;50.224;10.126;2022-10-31T14:15:24;17.70;99.90
5164;DHT22;2601;50.224;10.126;2022-10-31T14:17:54;17.70;99.90
5164;DHT22;2601;50.224;10.126;2022-10-31T14:20:41;17.50;99.90
5164;DHT22;2601;50.224;10.126;2022-10-31T14:26:32;17.40;99.90
5164;DHT22;2601;50.224;10.126;2022-10-31T14:29:02;17.20;99.90
5164;DHT22;2601;50.224;10.126;2022-10-31T14:37:44;17.20;99.90
5164;DHT22;2601;50.224;10.126;2022-10-31T14:50:50;16.80;99.90
5164;DHT22;2601;50.224;10.126;2022-10-31T14:53:30;16.80;99.90
5164;DHT22;2601;50.224;10.126;2022-10-31T14:55:57;16.80;99.90
5164;DHT22;2601;50.224;10.126;2022-10-31T14:58:41;16.70;99.90
5164;DHT22;2601;50.224;10.126;2022-10-31T15:03:47;16.50;99.90
5164;DHT22;2601;50.224;10.126;2022-10-31T15:06:15;16.40;99.90
5164;DHT22;2601;50.224;10.126;2022-10-31T15:08:47;16.30;99.90
5164;DHT22;2601;50.224;10.126;2022-10-31T15:11:25;16.20;99.90
5164;DHT22;2601;50.224;10.126;2022-10-31T15:13:56;16.20;99.90
5164;DHT22;2601;50.224;10.126;2022-10-31T15:16:41;16.20;99.90
5164;DHT22;2601;50.224;10.126;2022-10-31T15:19:12;16.20;99.90
5164;DHT22;2601;50.224;10.126;2022-10-31T15:21:43;16.10;99.90
5164;DHT22;2601;50.224;10.126;2022-10-31T15:24:13;16.10;99.90
5164;DHT22;2601;50.224;10.126;2022-10-31T15:26:46;16.00;99.90
5164;DHT22;2601;50.224;10.126;2022-10-31T15:29:14;15.90;99.90
5164;DHT22;2601;50.224;10.126;2022-10-31T15:36:56;15.70;99.90
5164;DHT22;2601;50.224;10.126;2022-10-31T15:39:21;15.70;99.90
5164;DHT22;2601;50.224;10.126;2022-10-31T15:41:56;15.50;99.90
5164;DHT22;2601;50.224;10.126;2022-10-31T15:44:32;15.40;99.90
5164;DHT22;2601;50.224;10.126;2022-10-31T15:47:04;15.30;99.90
5164;DHT22;2601;50.224;10.126;2022-10-31T15:49:37;15.20;99.90
5164;DHT22;2601;50.224;10.126;2022-10-31T15:52:15;15.10;99.90
5164;DHT22;2601;50.224;10.126;2022-10-31T15:54:51;15.10;99.90
5164;DHT22;2601;50.224;10.126;2022-10-31T15:57:17;15.00;99.90
5164;DHT22;2601;50.224;10.126;2022-10-31T15:59:46;14.90;99.90
5164;DHT22;2601;50.224;10.126;2022-10-31T16:02:14;14.90;99.90
5164;DHT22;2601;50.224;10.126;2022-10-31T16:05:00;14.80;99.90
5164;DHT22;2601;50.224;10.126;2022-10-31T16:07:28;14.70;99.90
5164;DHT22;2601;50.224;10.126;2022-10-31T16:09:57;14.50;99.90
5164;DHT22;2601;50.224;10.126;2022-10-31T16:12:45;14.40;99.90
5164;DHT22;2601;50.224;10.126;2022-10-31T16:15:15;14.30;99.90
5164;DHT22;2601;50.224;10.126;2022-10-31T16:17:44;14.20;99.90
5164;DHT22;2601;50.224;10.126;2022-10-31T16:20:37;14.30;99.90
5164;DHT22;2601;50.224;10.126;2022-10-31T16:23:03;14.40;99.90
5164;DHT22;2601;50.224;10.126;2022-10-31T16:25:34;14.30;99.90
5164;DHT22;2601;50.224;10.126;2022-10-31T16:28:23;14.10;99.90
5164;DHT22;2601;50.224;10.126;2022-10-31T16:30:51;14.20;99.90
5164;DHT22;2601;50.224;10.126;2022-10-31T16:33:35;14.20;99.90
5164;DHT22;2601;50.224;10.126;2022-10-31T16:38:54;14.00;99.90
5164;DHT22;2601;50.224;10.126;2022-10-31T16:41:21;13.80;99.90
5164;DHT22;2601;50.224;10.126;2022-10-31T16:43:47;13.60;99.90
5164;DHT22;2601;50.224;10.126;2022-10-31T16:46:15;13.50;99.90
5164;DHT22;2601;50.224;10.126;2022-10-31T16:48:41;13.40;99.90
5164;DHT22;2601;50.224;10.126;2022-10-31T16:51:07;13.30;99.90
5164;DHT22;2601;50.224;10.126;2022-10-31T16:53:33;13.20;99.90
5164;DHT22;2601;50.224;10.126;2022-10-31T16:56:01;13.10;99.90
5164;DHT22;2601;50.224;10.126;2022-10-31T16:58:30;13.20;99.90
5164;DHT22;2601;50.224;10.126;2022-10-31T17:00:58;13.10;99.90
5164;DHT22;2601;50.224;10.126;2022-10-31T17:03:24;13.00;99.90
5164;DHT22;2601;50.224;10.126;2022-10-31T17:05:50;13.00;99.90
5164;DHT22;2601;50.224;10.126;2022-10-31T17:08:15;12.90;99.90
5164;DHT22;2601;50.224;10.126;2022-10-31T17:10:43;12.90;99.90
5164;DHT22;2601;50.224;10.126;2022-10-31T17:13:20;12.90;99.90
5164;DHT22;2601;50.224;10.126;2022-10-31T17:15:50;12.80;99.90
5164;DHT22;2601;50.224;10.126;2022-10-31T17:18:17;12.90;99.90
5164;DHT22;2601;50.224;10.126;2022-10-31T17:20:44;12.80;99.90
5164;DHT22;2601;50.224;10.126;2022-10-31T17:23:12;12.80;99.90
5164;DHT22;2601;50.224;10.126;2022-10-31T17:25:38;12.90;99.90
5164;DHT22;2601;50.224;10.126;2022-10-31T17:28:04;12.90;99.90
5164;DHT22;2601;50.224;10.126;2022-10-31T17:30:31;12.90;99.90
5164;DHT22;2601;50.224;10.126;2022-10-31T17:32:58;12.80;99.90
5164;DHT22;2601;50.224;10.126;2022-10-31T17:35:23;12.70;99.90
5164;DHT22;2601;50.224;10.126;2022-10-31T17:37:49;12.70;99.90
5164;DHT22;2601;50.224;10.126;2022-10-31T17:40:18;12.60;99.90
5164;DHT22;2601;50.224;10.126;2022-10-31T17:42:55;12.60;99.90
5164;DHT22;2601;50.224;10.126;2022-10-31T17:45:23;12.60;99.90
5164;DHT22;2601;50.224;10.126;2022-10-31T17:47:50;12.70;99.90
5164;DHT22;2601;50.224;10.126;2022-10-31T17:50:18;12.80;99.90
5164;DHT22;2601;50.224;10.126;2022-10-31T17:52:45;12.70;99.90
5164;DHT22;2601;50.224;10.126;2022-10-31T17:55:11;12.60;99.90
5164;DHT22;2601;50.224;10.126;2022-10-31T17:57:37;12.50;99.90
5164;DHT22;2601;50.224;10.126;2022-10-31T18:00:05;12.50;99.90
5164;DHT22;2601;50.224;10.126;2022-10-31T18:02:31;12.40;99.90
5164;DHT22;2601;50.224;10.126;2022-10-31T18:04:57;12.40;99.90
5164;DHT22;2601;50.224;10.126;2022-10-31T18:07:23;12.30;99.90
5164;DHT22;2601;50.224;10.126;2022-10-31T18:09:48;12.30;99.90
5164;DHT22;2601;50.224;10.126;2022-10-31T18:12:15;12.40;99.90
5164;DHT22;2601;50.224;10.126;2022-10-31T18:14:41;12.40;99.90
5164;DHT22;2601;50.224;10.126;2022-10-31T18:17:06;12.40;99.90
5164;DHT22;2601;50.224;10.126;2022-10-31T18:19:32;12.50;99.90
5164;DHT22;2601;50.224;10.126;2022-10-31T18:21:58;12.60;99.90
5164;DHT22;2601;50.224;10.126;2022-10-31T18:24:24;12.50;99.90
5164;DHT22;2601;50.224;10.126;2022-10-31T18:26:50;12.40;99.90
5164;DHT22;2601;50.224;10.126;2022-10-31T18:29:16;12.50;99.90
5164;DHT22;2601;50.224;10.126;2022-10-31T18:31:42;12.60;99.90
5164;DHT22;2601;50.224;10.126;2022-10-31T18:34:07;12.50;99.90
5164;DHT22;2601;50.224;10.126;2022-10-31T18:36:33;12.50;99.90
5164;DHT22;2601;50.224;10.126;2022-10-31T18:38:59;12.50;99.90
5164;DHT22;2601;50.224;10.126;2022-10-31T18:41:25;12.40;99.90